sensor_id;sensor_type;location;lat;lon;timestamp;pressure;altitude;pressure_sealevel;temperature;humidity
74075;BME280;62428;51.412;5.432;2022-11-12T00:01:11;102993.06;;;4.76;83.95
74075;BME280;62428;51.412;5.432;2022-11-12T00:03:37;103000.63;;;4.73;84.00
74075;BME280;62428;51.412;5.432;2022-11-12T00:06:02;103004.50;;;4.70;84.36
74075;BME280;62428;51.412;5.432;2022-11-12T00:08:27;103000.22;;;4.69;84.08
74075;BME280;62428;51.412;5.432;2022-11-12T00:10:53;103004.69;;;4.69;84.00
74075;BME280;62428;51.412;5.432;2022-11-12T00:13:18;103003.06;;;4.68;83.84
74075;BME280;62428;51.412;5.432;2022-11-12T00:15:45;102991.16;;;4.63;83.92
74075;BME280;62428;51.412;5.432;2022-11-12T00:18:10;103001.00;;;4.63;83.78
74075;BME280;62428;51.412;5.432;2022-11-12T00:20:36;103004.69;;;4.62;84.21
74075;BME280;62428;51.412;5.432;2022-11-12T00:23:01;102998.94;;;4.58;83.99
74075;BME280;62428;51.412;5.432;2022-11-12T00:25:27;102997.28;;;4.57;84.42
74075;BME280;62428;51.412;5.432;2022-11-12T00:27:53;103001.78;;;4.57;83.92
74075;BME280;62428;51.412;5.432;2022-11-12T00:30:18;102996.66;;;4.55;84.35
74075;BME280;62428;51.412;5.432;2022-11-12T00:32:43;103005.03;;;4.52;83.99
74075;BME280;62428;51.412;5.432;2022-11-12T00:35:09;103000.75;;;4.51;84.02
74075;BME280;62428;51.412;5.432;2022-11-12T00:37:34;102997.47;;;4.49;84.17
74075;BME280;62428;51.412;5.432;2022-11-12T00:39:59;102993.97;;;4.49;84.18
74075;BME280;62428;51.412;5.432;2022-11-12T00:42:25;102996.81;;;4.47;84.20
74075;BME280;62428;51.412;5.432;2022-11-12T00:44:50;102999.28;;;4.42;84.35
74075;BME280;62428;51.412;5.432;2022-11-12T00:47:16;103004.59;;;4.42;84.34
74075;BME280;62428;51.412;5.432;2022-11-12T00:49:41;102994.75;;;4.42;84.69
74075;BME280;62428;51.412;5.432;2022-11-12T00:52:07;103001.09;;;4.41;84.21
74075;BME280;62428;51.412;5.432;2022-11-12T00:54:32;102999.47;;;4.40;84.40
74075;BME280;62428;51.412;5.432;2022-11-12T00:56:58;102997.00;;;4.39;84.21
74075;BME280;62428;51.412;5.432;2022-11-12T00:59:23;102993.72;;;4.37;84.55
74075;BME280;62428;51.412;5.432;2022-11-12T01:01:48;102990.25;;;4.36;84.95
74075;BME280;62428;51.412;5.432;2022-11-12T01:04:14;102994.91;;;4.34;84.32
74075;BME280;62428;51.412;5.432;2022-11-12T01:06:39;102990.44;;;4.35;84.35
74075;BME280;62428;51.412;5.432;2022-11-12T01:09:05;102991.25;;;4.35;84.71
74075;BME280;62428;51.412;5.432;2022-11-12T01:11:31;102988.59;;;4.35;84.72
74075;BME280;62428;51.412;5.432;2022-11-12T01:13:58;102978.75;;;4.36;85.03
74075;BME280;62428;51.412;5.432;2022-11-12T01:16:27;102978.13;;;4.34;84.61
74075;BME280;62428;51.412;5.432;2022-11-12T01:18:58;102980.56;;;4.29;84.46
74075;BME280;62428;51.412;5.432;2022-11-12T01:21:27;102972.97;;;4.26;84.96
74075;BME280;62428;51.412;5.432;2022-11-12T01:23:53;102972.13;;;4.25;84.81
74075;BME280;62428;51.412;5.432;2022-11-12T01:26:20;102974.19;;;4.23;84.82
74075;BME280;62428;51.412;5.432;2022-11-12T01:28:46;102976.66;;;4.24;84.75
74075;BME280;62428;51.412;5.432;2022-11-12T01:31:20;102974.81;;;4.25;84.69
74075;BME280;62428;51.412;5.432;2022-11-12T01:33:48;102975.84;;;4.24;84.98
74075;BME280;62428;51.412;5.432;2022-11-12T01:36:15;102966.00;;;4.24;84.97
74075;BME280;62428;51.412;5.432;2022-11-12T01:38:43;102960.69;;;4.24;85.33
74075;BME280;62428;51.412;5.432;2022-11-12T01:41:16;102969.28;;;4.27;85.42
74075;BME280;62428;51.412;5.432;2022-11-12T01:43:42;102965.63;;;4.28;85.14
74075;BME280;62428;51.412;5.432;2022-11-12T01:46:21;102966.63;;;4.27;85.07
74075;BME280;62428;51.412;5.432;2022-11-12T01:48:49;102965.63;;;4.28;85.10
74075;BME280;62428;51.412;5.432;2022-11-12T01:51:19;102972.78;;;4.27;85.52
74075;BME280;62428;51.412;5.432;2022-11-12T01:53:46;102968.47;;;4.26;84.66
74075;BME280;62428;51.412;5.432;2022-11-12T01:56:15;102969.91;;;4.22;84.92
74075;BME280;62428;51.412;5.432;2022-11-12T01:58:43;102972.75;;;4.20;84.98
74075;BME280;62428;51.412;5.432;2022-11-12T02:01:10;102969.47;;;4.18;84.88
74075;BME280;62428;51.412;5.432;2022-11-12T02:03:36;102964.16;;;4.18;85.20
74075;BME280;62428;51.412;5.432;2022-11-12T02:06:05;102959.81;;;4.17;85.35
74075;BME280;62428;51.412;5.432;2022-11-12T02:08:32;102967.19;;;4.15;85.08
74075;BME280;62428;51.412;5.432;2022-11-12T02:11:15;102968.00;;;4.16;84.59
74075;BME280;62428;51.412;5.432;2022-11-12T02:13:42;102969.22;;;4.13;84.80
74075;BME280;62428;51.412;5.432;2022-11-12T02:16:37;102970.66;;;4.09;84.81
74075;BME280;62428;51.412;5.432;2022-11-12T02:19:06;102969.19;;;4.07;84.81
74075;BME280;62428;51.412;5.432;2022-11-12T02:21:32;102979.19;;;4.04;85.05
74075;BME280;62428;51.412;5.432;2022-11-12T02:24:03;102973.25;;;4.02;84.72
74075;BME280;62428;51.412;5.432;2022-11-12T02:26:32;102972.81;;;3.99;84.92
74075;BME280;62428;51.412;5.432;2022-11-12T02:28:59;102965.03;;;3.97;84.96
74075;BME280;62428;51.412;5.432;2022-11-12T02:31:24;102967.06;;;3.95;84.90
74075;BME280;62428;51.412;5.432;2022-11-12T02:33:50;102976.28;;;3.93;85.20
74075;BME280;62428;51.412;5.432;2022-11-12T02:36:15;102978.09;;;3.92;84.93
74075;BME280;62428;51.412;5.432;2022-11-12T02:38:40;102963.97;;;3.92;85.17
74075;BME280;62428;51.412;5.432;2022-11-12T02:41:06;102972.34;;;3.89;84.84
74075;BME280;62428;51.412;5.432;2022-11-12T02:43:31;102961.69;;;3.89;84.74
74075;BME280;62428;51.412;5.432;2022-11-12T02:45:57;102959.25;;;3.87;85.07
74075;BME280;62428;51.412;5.432;2022-11-12T02:48:22;102958.22;;;3.88;85.11
74075;BME280;62428;51.412;5.432;2022-11-12T02:50:47;102958.03;;;3.90;85.56
74075;BME280;62428;51.412;5.432;2022-11-12T02:53:13;102955.38;;;3.90;85.16
74075;BME280;62428;51.412;5.432;2022-11-12T02:55:38;102951.06;;;3.89;85.04
74075;BME280;62428;51.412;5.432;2022-11-12T02:58:03;102942.66;;;3.85;84.66
74075;BME280;62428;51.412;5.432;2022-11-12T03:00:29;102956.34;;;3.82;85.50
74075;BME280;62428;51.412;5.432;2022-11-12T03:02:54;102949.19;;;3.82;85.08
74075;BME280;62428;51.412;5.432;2022-11-12T03:05:28;102953.88;;;3.80;85.01
74075;BME280;62428;51.412;5.432;2022-11-12T03:07:58;102951.03;;;3.82;85.31
74075;BME280;62428;51.412;5.432;2022-11-12T03:10:27;102952.03;;;3.81;85.51
74075;BME280;62428;51.412;5.432;2022-11-12T03:12:55;102953.88;;;3.80;85.55
74075;BME280;62428;51.412;5.432;2022-11-12T03:15:21;102954.69;;;3.81;84.93
74075;BME280;62428;51.412;5.432;2022-11-12T03:17:47;102952.84;;;3.81;84.91
74075;BME280;62428;51.412;5.432;2022-11-12T03:20:12;102951.22;;;3.80;85.17
74075;BME280;62428;51.412;5.432;2022-11-12T03:22:38;102962.03;;;3.79;85.03
74075;BME280;62428;51.412;5.432;2022-11-12T03:25:05;102954.25;;;3.77;85.39
74075;BME280;62428;51.412;5.432;2022-11-12T03:27:31;102958.97;;;3.75;85.00
74075;BME280;62428;51.412;5.432;2022-11-12T03:29:56;102963.47;;;3.75;85.15
74075;BME280;62428;51.412;5.432;2022-11-12T03:32:22;102966.31;;;3.73;85.48
74075;BME280;62428;51.412;5.432;2022-11-12T03:34:47;102966.31;;;3.73;85.53
74075;BME280;62428;51.412;5.432;2022-11-12T03:37:13;102971.63;;;3.73;85.80
74075;BME280;62428;51.412;5.432;2022-11-12T03:39:38;102968.78;;;3.75;86.02
74075;BME280;62428;51.412;5.432;2022-11-12T03:42:04;102966.94;;;3.75;86.07
74075;BME280;62428;51.412;5.432;2022-11-12T03:44:29;102971.44;;;3.75;85.80
74075;BME280;62428;51.412;5.432;2022-11-12T03:46:54;102967.13;;;3.74;85.74
74075;BME280;62428;51.412;5.432;2022-11-12T03:49:20;102964.66;;;3.72;85.62
74075;BME280;62428;51.412;5.432;2022-11-12T03:51:45;102971.00;;;3.71;85.90
74075;BME280;62428;51.412;5.432;2022-11-12T03:54:11;102964.88;;;3.71;86.16
74075;BME280;62428;51.412;5.432;2022-11-12T03:56:37;102966.88;;;3.69;85.98
74075;BME280;62428;51.412;5.432;2022-11-12T03:59:02;102966.06;;;3.68;86.25
74075;BME280;62428;51.412;5.432;2022-11-12T04:01:28;102966.88;;;3.69;86.71
74075;BME280;62428;51.412;5.432;2022-11-12T04:03:53;102957.09;;;3.69;86.86
74075;BME280;62428;51.412;5.432;2022-11-12T04:06:18;102960.75;;;3.68;86.15
74075;BME280;62428;51.412;5.432;2022-11-12T04:09:02;102951.13;;;3.67;85.90
74075;BME280;62428;51.412;5.432;2022-11-12T04:11:28;102947.63;;;3.66;85.77
74075;BME280;62428;51.412;5.432;2022-11-12T04:13:53;102944.97;;;3.66;85.53
74075;BME280;62428;51.412;5.432;2022-11-12T04:16:20;102947.81;;;3.65;85.84
74075;BME280;62428;51.412;5.432;2022-11-12T04:19:05;102946.19;;;3.64;85.62
74075;BME280;62428;51.412;5.432;2022-11-12T04:22:03;102938.41;;;3.62;85.50
74075;BME280;62428;51.412;5.432;2022-11-12T04:24:31;102936.97;;;3.60;86.07
74075;BME280;62428;51.412;5.432;2022-11-12T04:29:46;102939.19;;;3.56;85.59
74075;BME280;62428;51.412;5.432;2022-11-12T04:32:32;102936.72;;;3.55;85.84
74075;BME280;62428;51.412;5.432;2022-11-12T04:34:58;102936.28;;;3.51;85.71
74075;BME280;62428;51.412;5.432;2022-11-12T04:37:25;102935.84;;;3.47;85.85
74075;BME280;62428;51.412;5.432;2022-11-12T04:39:51;102940.53;;;3.45;85.76
74075;BME280;62428;51.412;5.432;2022-11-12T04:42:16;102929.91;;;3.45;86.03
74075;BME280;62428;51.412;5.432;2022-11-12T04:45:00;102933.38;;;3.46;85.88
74075;BME280;62428;51.412;5.432;2022-11-12T04:47:40;102938.06;;;3.44;86.05
74075;BME280;62428;51.412;5.432;2022-11-12T04:50:11;102921.31;;;3.43;86.48
74075;BME280;62428;51.412;5.432;2022-11-12T04:52:37;102921.94;;;3.45;86.64
74075;BME280;62428;51.412;5.432;2022-11-12T04:55:03;102923.78;;;3.45;86.25
74075;BME280;62428;51.412;5.432;2022-11-12T04:57:28;102921.13;;;3.45;85.90
74075;BME280;62428;51.412;5.432;2022-11-12T04:59:53;102919.66;;;3.42;86.26
74075;BME280;62428;51.412;5.432;2022-11-12T05:02:19;102928.66;;;3.41;86.26
74075;BME280;62428;51.412;5.432;2022-11-12T05:04:44;102926.00;;;3.41;86.48
74075;BME280;62428;51.412;5.432;2022-11-12T05:07:10;102919.03;;;3.40;86.43
74075;BME280;62428;51.412;5.432;2022-11-12T05:09:36;102925.34;;;3.39;86.09
74075;BME280;62428;51.412;5.432;2022-11-12T05:12:02;102918.41;;;3.38;86.33
74075;BME280;62428;51.412;5.432;2022-11-12T05:14:27;102915.13;;;3.36;86.24
74075;BME280;62428;51.412;5.432;2022-11-12T05:16:52;102921.25;;;3.37;85.89
74075;BME280;62428;51.412;5.432;2022-11-12T05:19:18;102915.31;;;3.35;85.73
74075;BME280;62428;51.412;5.432;2022-11-12T05:21:44;102909.38;;;3.33;86.07
74075;BME280;62428;51.412;5.432;2022-11-12T05:24:28;102905.06;;;3.32;86.18
74075;BME280;62428;51.412;5.432;2022-11-12T05:26:53;102908.13;;;3.29;86.28
74075;BME280;62428;51.412;5.432;2022-11-12T05:29:19;102908.94;;;3.29;86.02
74075;BME280;62428;51.412;5.432;2022-11-12T05:31:44;102910.78;;;3.29;86.68
74075;BME280;62428;51.412;5.432;2022-11-12T05:34:10;102907.28;;;3.28;86.30
74075;BME280;62428;51.412;5.432;2022-11-12T05:36:36;102904.63;;;3.28;86.15
74075;BME280;62428;51.412;5.432;2022-11-12T05:39:02;102907.28;;;3.28;87.09
74075;BME280;62428;51.412;5.432;2022-11-12T05:41:27;102903.81;;;3.27;87.00
74075;BME280;62428;51.412;5.432;2022-11-12T05:43:53;102905.66;;;3.27;86.13
74075;BME280;62428;51.412;5.432;2022-11-12T05:46:19;102909.94;;;3.28;86.42
74075;BME280;62428;51.412;5.432;2022-11-12T05:48:44;102904.00;;;3.26;86.52
74075;BME280;62428;51.412;5.432;2022-11-12T05:51:10;102898.69;;;3.26;86.28
74075;BME280;62428;51.412;5.432;2022-11-12T05:53:40;102904.00;;;3.26;86.60
74075;BME280;62428;51.412;5.432;2022-11-12T05:56:07;102897.06;;;3.25;86.75
74075;BME280;62428;51.412;5.432;2022-11-12T05:58:34;102894.41;;;3.25;86.65
74075;BME280;62428;51.412;5.432;2022-11-12T06:01:00;102896.22;;;3.24;86.31
74075;BME280;62428;51.412;5.432;2022-11-12T06:03:26;102900.72;;;3.24;86.60
74075;BME280;62428;51.412;5.432;2022-11-12T06:05:51;102897.25;;;3.23;86.47
74075;BME280;62428;51.412;5.432;2022-11-12T06:08:17;102897.25;;;3.23;86.58
74075;BME280;62428;51.412;5.432;2022-11-12T06:10:50;102893.75;;;3.23;86.46
74075;BME280;62428;51.412;5.432;2022-11-12T06:13:16;102898.25;;;3.22;86.70
74075;BME280;62428;51.412;5.432;2022-11-12T06:15:42;102905.41;;;3.22;86.25
74075;BME280;62428;51.412;5.432;2022-11-12T06:18:07;102902.13;;;3.20;86.51
74075;BME280;62428;51.412;5.432;2022-11-12T06:20:33;102901.50;;;3.18;86.34
74075;BME280;62428;51.412;5.432;2022-11-12T06:22:59;102903.28;;;3.17;86.52
74075;BME280;62428;51.412;5.432;2022-11-12T06:25:25;102913.28;;;3.15;86.44
74075;BME280;62428;51.412;5.432;2022-11-12T06:27:50;102912.66;;;3.13;86.29
74075;BME280;62428;51.412;5.432;2022-11-12T06:30:16;102909.38;;;3.11;86.32
74075;BME280;62428;51.412;5.432;2022-11-12T06:32:41;102918.34;;;3.10;86.10
74075;BME280;62428;51.412;5.432;2022-11-12T06:35:09;102915.06;;;3.08;86.60
74075;BME280;62428;51.412;5.432;2022-11-12T06:37:35;102915.25;;;3.06;86.80
74075;BME280;62428;51.412;5.432;2022-11-12T06:40:00;102910.16;;;3.05;86.44
74075;BME280;62428;51.412;5.432;2022-11-12T06:42:25;102908.50;;;3.04;86.36
74075;BME280;62428;51.412;5.432;2022-11-12T06:44:51;102914.81;;;3.03;86.21
74075;BME280;62428;51.412;5.432;2022-11-12T06:47:16;102921.97;;;3.02;86.30
74075;BME280;62428;51.412;5.432;2022-11-12T06:49:41;102917.69;;;3.01;86.45
74075;BME280;62428;51.412;5.432;2022-11-12T06:52:07;102914.00;;;3.02;86.38
74075;BME280;62428;51.412;5.432;2022-11-12T06:54:32;102925.66;;;3.01;86.49
74075;BME280;62428;51.412;5.432;2022-11-12T06:56:57;102925.84;;;3.00;86.76
74075;BME280;62428;51.412;5.432;2022-11-12T06:59:23;102929.50;;;2.99;86.87
74075;BME280;62428;51.412;5.432;2022-11-12T07:01:48;102936.28;;;3.01;87.06
74075;BME280;62428;51.412;5.432;2022-11-12T07:04:13;102930.75;;;3.03;87.23
74075;BME280;62428;51.412;5.432;2022-11-12T07:06:39;102923.63;;;3.03;86.91
74075;BME280;62428;51.412;5.432;2022-11-12T07:09:04;102924.25;;;3.05;87.08
74075;BME280;62428;51.412;5.432;2022-11-12T07:11:30;102917.91;;;3.06;87.06
74075;BME280;62428;51.412;5.432;2022-11-12T07:13:56;102921.59;;;3.05;86.78
74075;BME280;62428;51.412;5.432;2022-11-12T07:16:21;102926.91;;;3.05;86.82
74075;BME280;62428;51.412;5.432;2022-11-12T07:18:47;102931.41;;;3.05;87.27
74075;BME280;62428;51.412;5.432;2022-11-12T07:21:15;102918.56;;;3.08;88.03
74075;BME280;62428;51.412;5.432;2022-11-12T07:23:41;102931.00;;;3.08;87.72
74075;BME280;62428;51.412;5.432;2022-11-12T07:26:16;102932.66;;;3.09;87.61
74075;BME280;62428;51.412;5.432;2022-11-12T07:28:42;102937.59;;;3.12;87.67
74075;BME280;62428;51.412;5.432;2022-11-12T07:31:12;102940.03;;;3.14;87.45
74075;BME280;62428;51.412;5.432;2022-11-12T07:33:37;102945.97;;;3.16;87.68
74075;BME280;62428;51.412;5.432;2022-11-12T07:36:06;102931.72;;;3.17;87.49
74075;BME280;62428;51.412;5.432;2022-11-12T07:38:34;102947.47;;;3.18;87.89
74075;BME280;62428;51.412;5.432;2022-11-12T07:41:02;102937.47;;;3.20;87.96
74075;BME280;62428;51.412;5.432;2022-11-12T07:43:29;102943.41;;;3.22;88.17
74075;BME280;62428;51.412;5.432;2022-11-12T07:45:59;102946.50;;;3.26;88.44
74075;BME280;62428;51.412;5.432;2022-11-12T07:48:25;102950.63;;;3.29;88.08
74075;BME280;62428;51.412;5.432;2022-11-12T07:50:51;102948.38;;;3.32;88.67
74075;BME280;62428;51.412;5.432;2022-11-12T07:53:16;102945.78;;;3.39;88.89
74075;BME280;62428;51.412;5.432;2022-11-12T07:55:41;102946.03;;;3.44;88.46
74075;BME280;62428;51.412;5.432;2022-11-12T07:58:07;102947.47;;;3.46;88.77
74075;BME280;62428;51.412;5.432;2022-11-12T08:00:32;102949.78;;;3.50;88.99
74075;BME280;62428;51.412;5.432;2022-11-12T08:02:59;102955.72;;;3.52;89.27
74075;BME280;62428;51.412;5.432;2022-11-12T08:05:26;102949.19;;;3.54;89.52
74075;BME280;62428;51.412;5.432;2022-11-12T08:07:54;102960.28;;;3.58;89.43
74075;BME280;62428;51.412;5.432;2022-11-12T08:10:20;102957.03;;;3.62;89.11
74075;BME280;62428;51.412;5.432;2022-11-12T08:12:46;102966.25;;;3.66;89.68
74075;BME280;62428;51.412;5.432;2022-11-12T08:15:11;102960.38;;;3.71;89.98
74075;BME280;62428;51.412;5.432;2022-11-12T08:17:37;102952.63;;;3.76;90.39
74075;BME280;62428;51.412;5.432;2022-11-12T08:20:03;102958.59;;;3.85;90.90
74075;BME280;62428;51.412;5.432;2022-11-12T08:22:30;102966.25;;;3.95;90.77
74075;BME280;62428;51.412;5.432;2022-11-12T08:24:55;102958.94;;;4.03;90.71
74075;BME280;62428;51.412;5.432;2022-11-12T08:27:20;102969.41;;;4.12;90.79
74075;BME280;62428;51.412;5.432;2022-11-12T08:29:46;102968.44;;;4.19;90.63
74075;BME280;62428;51.412;5.432;2022-11-12T08:32:11;102973.81;;;4.26;90.26
74075;BME280;62428;51.412;5.432;2022-11-12T08:34:37;102967.47;;;4.34;90.55
74075;BME280;62428;51.412;5.432;2022-11-12T08:37:05;102974.69;;;4.40;90.03
74075;BME280;62428;51.412;5.432;2022-11-12T08:39:30;102973.91;;;4.46;89.69
74075;BME280;62428;51.412;5.432;2022-11-12T08:41:56;102975.38;;;4.55;89.88
74075;BME280;62428;51.412;5.432;2022-11-12T08:44:21;102986.88;;;4.62;89.52
74075;BME280;62428;51.412;5.432;2022-11-12T08:46:46;102983.81;;;4.72;90.02
74075;BME280;62428;51.412;5.432;2022-11-12T08:49:12;102981.00;;;4.80;89.70
74075;BME280;62428;51.412;5.432;2022-11-12T08:51:37;102981.41;;;4.91;89.79
74075;BME280;62428;51.412;5.432;2022-11-12T08:54:02;102981.03;;;5.00;89.79
74075;BME280;62428;51.412;5.432;2022-11-12T08:56:28;102973.47;;;5.11;88.67
74075;BME280;62428;51.412;5.432;2022-11-12T08:58:53;102971.22;;;5.21;89.10
74075;BME280;62428;51.412;5.432;2022-11-12T09:01:18;102973.69;;;5.29;88.95
74075;BME280;62428;51.412;5.432;2022-11-12T09:03:43;102974.13;;;5.39;88.80
74075;BME280;62428;51.412;5.432;2022-11-12T09:06:09;102975.75;;;5.47;87.76
74075;BME280;62428;51.412;5.432;2022-11-12T09:08:35;102978.03;;;5.57;87.75
74075;BME280;62428;51.412;5.432;2022-11-12T09:11:01;102986.22;;;5.69;87.19
74075;BME280;62428;51.412;5.432;2022-11-12T09:13:28;102977.59;;;5.80;86.79
74075;BME280;62428;51.412;5.432;2022-11-12T09:15:58;102977.34;;;5.95;87.22
74075;BME280;62428;51.412;5.432;2022-11-12T09:18:23;102976.31;;;6.09;86.58
74075;BME280;62428;51.412;5.432;2022-11-12T09:20:49;102975.47;;;6.29;86.41
74075;BME280;62428;51.412;5.432;2022-11-12T09:23:15;102978.47;;;6.46;85.96
74075;BME280;62428;51.412;5.432;2022-11-12T09:25:42;102976.97;;;6.63;85.75
74075;BME280;62428;51.412;5.432;2022-11-12T09:28:16;102978.75;;;6.76;84.96
74075;BME280;62428;51.412;5.432;2022-11-12T09:30:44;102975.63;;;6.86;85.08
74075;BME280;62428;51.412;5.432;2022-11-12T09:33:14;102977.66;;;6.90;84.75
74075;BME280;62428;51.412;5.432;2022-11-12T09:35:40;102974.78;;;6.92;84.64
74075;BME280;62428;51.412;5.432;2022-11-12T09:38:05;102976.41;;;6.93;84.34
74075;BME280;62428;51.412;5.432;2022-11-12T09:43:09;102976.59;;;6.98;84.61
74075;BME280;62428;51.412;5.432;2022-11-12T09:45:35;102977.78;;;7.02;84.79
74075;BME280;62428;51.412;5.432;2022-11-12T09:48:04;102974.47;;;7.07;84.68
74075;BME280;62428;51.412;5.432;2022-11-12T09:50:39;102975.47;;;7.12;84.78
74075;BME280;62428;51.412;5.432;2022-11-12T09:53:12;102973.19;;;7.16;85.03
74075;BME280;62428;51.412;5.432;2022-11-12T09:55:46;102977.88;;;7.21;84.75
74075;BME280;62428;51.412;5.432;2022-11-12T09:58:14;102970.22;;;7.24;84.82
74075;BME280;62428;51.412;5.432;2022-11-12T10:00:42;102976.13;;;7.33;83.83
74075;BME280;62428;51.412;5.432;2022-11-12T10:03:36;102975.44;;;7.44;83.80
74075;BME280;62428;51.412;5.432;2022-11-12T10:06:15;102977.41;;;7.56;83.96
74075;BME280;62428;51.412;5.432;2022-11-12T10:09:00;102964.56;;;7.64;83.58
74075;BME280;62428;51.412;5.432;2022-11-12T10:14:51;102958.03;;;7.79;83.64
74075;BME280;62428;51.412;5.432;2022-11-12T10:17:39;102964.97;;;7.86;83.72
74075;BME280;62428;51.412;5.432;2022-11-12T10:20:24;102967.19;;;7.89;83.96
74075;BME280;62428;51.412;5.432;2022-11-12T10:25:30;102968.50;;;8.05;84.47
74075;BME280;62428;51.412;5.432;2022-11-12T10:27:56;102963.28;;;8.11;83.21
74075;BME280;62428;51.412;5.432;2022-11-12T10:30:23;102968.56;;;8.17;83.17
74075;BME280;62428;51.412;5.432;2022-11-12T10:32:50;102965.22;;;8.22;84.73
74075;BME280;62428;51.412;5.432;2022-11-12T10:35:19;102963.72;;;8.26;84.25
74075;BME280;62428;51.412;5.432;2022-11-12T10:37:49;102970.25;;;8.30;83.75
74075;BME280;62428;51.412;5.432;2022-11-12T10:45:43;102952.22;;;8.44;84.08
74075;BME280;62428;51.412;5.432;2022-11-12T10:48:23;102951.28;;;8.50;84.27
74075;BME280;62428;51.412;5.432;2022-11-12T10:50:49;102948.19;;;8.53;83.94
74075;BME280;62428;51.412;5.432;2022-11-12T10:53:34;102956.34;;;8.58;83.85
74075;BME280;62428;51.412;5.432;2022-11-12T10:56:05;102943.47;;;8.67;82.90
74075;BME280;62428;51.412;5.432;2022-11-12T10:58:45;102940.69;;;8.74;82.92
74075;BME280;62428;51.412;5.432;2022-11-12T11:01:15;102934.88;;;8.77;84.10
74075;BME280;62428;51.412;5.432;2022-11-12T11:03:49;102918.94;;;8.82;82.80
74075;BME280;62428;51.412;5.432;2022-11-12T11:06:21;102927.44;;;8.91;82.32
74075;BME280;62428;51.412;5.432;2022-11-12T11:08:49;102929.00;;;8.98;81.66
74075;BME280;62428;51.412;5.432;2022-11-12T11:11:26;102925.75;;;9.08;81.95
74075;BME280;62428;51.412;5.432;2022-11-12T11:16:59;102934.16;;;9.23;82.66
74075;BME280;62428;51.412;5.432;2022-11-12T11:19:35;102932.16;;;9.31;81.23
74075;BME280;62428;51.412;5.432;2022-11-12T11:24:53;102928.22;;;9.45;82.70
74075;BME280;62428;51.412;5.432;2022-11-12T11:30:09;102926.13;;;9.47;81.76
74075;BME280;62428;51.412;5.432;2022-11-12T11:41:37;102912.00;;;9.75;81.63
74075;BME280;62428;51.412;5.432;2022-11-12T11:55:50;102893.84;;;10.06;81.04
74075;BME280;62428;51.412;5.432;2022-11-12T12:01:04;102893.47;;;10.14;80.92
74075;BME280;62428;51.412;5.432;2022-11-12T12:06:26;102884.06;;;10.29;79.78
74075;BME280;62428;51.412;5.432;2022-11-12T12:09:37;102884.06;;;10.41;80.30
74075;BME280;62428;51.412;5.432;2022-11-12T12:12:03;102883.81;;;10.42;80.06
74075;BME280;62428;51.412;5.432;2022-11-12T12:15:10;102886.03;;;10.45;81.47
74075;BME280;62428;51.412;5.432;2022-11-12T12:20:38;102870.81;;;10.51;81.00
74075;BME280;62428;51.412;5.432;2022-11-12T12:23:14;102867.72;;;10.59;79.89
74075;BME280;62428;51.412;5.432;2022-11-12T12:25:45;102854.44;;;10.69;79.90
74075;BME280;62428;51.412;5.432;2022-11-12T12:28:33;102842.00;;;10.80;79.94
74075;BME280;62428;51.412;5.432;2022-11-12T12:31:06;102840.19;;;10.86;79.28
74075;BME280;62428;51.412;5.432;2022-11-12T12:33:35;102843.53;;;10.93;79.77
74075;BME280;62428;51.412;5.432;2022-11-12T12:36:07;102832.38;;;11.01;79.07
74075;BME280;62428;51.412;5.432;2022-11-12T12:38:47;102834.97;;;11.13;79.59
74075;BME280;62428;51.412;5.432;2022-11-12T12:41:19;102834.00;;;11.19;78.83
74075;BME280;62428;51.412;5.432;2022-11-12T12:43:54;102836.00;;;11.29;78.36
74075;BME280;62428;51.412;5.432;2022-11-12T12:46:25;102835.00;;;11.35;78.54
74075;BME280;62428;51.412;5.432;2022-11-12T12:48:53;102828.91;;;11.40;78.20
74075;BME280;62428;51.412;5.432;2022-11-12T12:51:20;102837.59;;;11.47;77.95
74075;BME280;62428;51.412;5.432;2022-11-12T12:53:46;102828.44;;;11.48;77.86
74075;BME280;62428;51.412;5.432;2022-11-12T12:58:47;102822.66;;;11.56;79.00
74075;BME280;62428;51.412;5.432;2022-11-12T13:08:54;102815.22;;;11.63;78.65
74075;BME280;62428;51.412;5.432;2022-11-12T13:14:43;102810.44;;;11.70;78.73
74075;BME280;62428;51.412;5.432;2022-11-12T13:17:11;102806.25;;;11.80;77.54
74075;BME280;62428;51.412;5.432;2022-11-12T13:22:46;102808.31;;;11.95;78.23
74075;BME280;62428;51.412;5.432;2022-11-12T13:32:58;102804.59;;;12.01;76.20
74075;BME280;62428;51.412;5.432;2022-11-12T13:35:26;102800.44;;;12.15;76.70
74075;BME280;62428;51.412;5.432;2022-11-12T13:43:25;102803.69;;;12.44;76.13
74075;BME280;62428;51.412;5.432;2022-11-12T13:48:51;102803.78;;;12.55;75.61
74075;BME280;62428;51.412;5.432;2022-11-12T13:51:39;102796.50;;;12.55;76.63
74075;BME280;62428;51.412;5.432;2022-11-12T13:54:26;102799.78;;;12.62;76.11
74075;BME280;62428;51.412;5.432;2022-11-12T13:56:52;102791.00;;;12.77;74.66
74075;BME280;62428;51.412;5.432;2022-11-12T13:59:23;102801.66;;;12.94;74.56
74075;BME280;62428;51.412;5.432;2022-11-12T14:01:49;102803.06;;;13.02;74.16
74075;BME280;62428;51.412;5.432;2022-11-12T14:04:17;102805.44;;;12.98;74.35
74075;BME280;62428;51.412;5.432;2022-11-12T14:06:46;102807.84;;;12.95;74.41
74075;BME280;62428;51.412;5.432;2022-11-12T14:20:34;102816.25;;;12.98;74.44
74075;BME280;62428;51.412;5.432;2022-11-12T14:23:21;102811.63;;;12.94;74.75
74075;BME280;62428;51.412;5.432;2022-11-12T14:25:52;102805.13;;;12.89;74.66
74075;BME280;62428;51.412;5.432;2022-11-12T14:28:26;102798.66;;;12.91;74.75
74075;BME280;62428;51.412;5.432;2022-11-12T14:30:52;102785.03;;;13.18;74.10
74075;BME280;62428;51.412;5.432;2022-11-12T14:33:20;102789.38;;;13.72;72.52
74075;BME280;62428;51.412;5.432;2022-11-12T14:35:47;102789.44;;;13.97;71.28
74075;BME280;62428;51.412;5.432;2022-11-12T14:38:24;102784.28;;;13.96;71.84
74075;BME280;62428;51.412;5.432;2022-11-12T14:40:56;102787.25;;;13.94;71.57
74075;BME280;62428;51.412;5.432;2022-11-12T14:46:16;102784.84;;;13.98;70.37